Time;durP1;ratioP1;P1;durP2;ratioP2;P2;SDS_P1;SDS_P2;PMS_P1;PMS_P2;Temp;Humidity;BMP_temperature;BMP_pressure;BME280_temperature;BME280_humidity;BME280_pressure;Samples;Min_cycle;Max_cycle;Signal;HPM_P1;HPM_P2
2021/08/20 00:00:35;;;;;;;2.93;2.33;;;;;;;;;;5032322;28;20202;-86
2021/08/20 00:03:12;;;;;;;2.20;2.00;;;;;;;;;;5015839;28;20288;-85
2021/08/20 00:05:41;;;;;;;3.30;2.10;;;;;;;;;;5016173;28;20200;-86
2021/08/20 00:08:18;;;;;;;3.30;2.43;;;;;;;;;;5031161;28;20324;-85
2021/08/20 00:10:44;;;;;;;4.40;2.80;;;;;;;;;;5016643;28;20322;-85
2021/08/20 00:13:13;;;;;;;3.10;2.47;;;;;;;;;;5032443;28;20181;-85
2021/08/20 00:15:47;;;;;;;2.57;2.37;;;;;;;;;;5015617;28;20605;-85
2021/08/20 00:18:14;;;;;;;2.77;2.33;;;;;;;;;;5033030;28;20665;-86
2021/08/20 00:20:53;;;;;;;2.80;2.50;;;;;;;;;;5015285;28;20188;-85
2021/08/20 00:23:22;;;;;;;2.63;2.43;;;;;;;;;;5032504;28;20533;-85
2021/08/20 00:25:48;;;;;;;2.60;2.40;;;;;;;;;;5044346;28;20209;-86
2021/08/20 00:28:24;;;;;;;3.87;2.40;;;;;;;;;;5032872;28;20243;-86
2021/08/20 00:30:50;;;;;;;3.37;2.47;;;;;;;;;;5015890;28;20644;-85
2021/08/20 00:33:16;;;;;;;3.43;2.50;;;;;;;;;;5031908;28;20198;-85
2021/08/20 00:35:45;;;;;;;2.43;2.20;;;;;;;;;;5031116;28;20217;-86
2021/08/20 00:38:14;;;;;;;3.40;2.30;;;;;;;;;;5012851;28;20260;-86
2021/08/20 00:40:40;;;;;;;2.50;2.27;;;;;;;;;;5033541;28;20182;-85
2021/08/20 00:43:08;;;;;;;2.43;2.23;;;;;;;;;;5032232;28;20209;-86
2021/08/20 00:45:36;;;;;;;3.13;2.53;;;;;;;;;;5017442;28;20185;-85
2021/08/20 00:48:10;;;;;;;2.70;2.27;;;;;;;;;;5033751;28;20281;-85
2021/08/20 00:50:36;;;;;;;2.93;2.37;;;;;;;;;;5016163;28;20209;-85
2021/08/20 00:53:07;;;;;;;6.57;2.90;;;;;;;;;;5034523;28;20181;-85
2021/08/20 00:55:36;;;;;;;2.90;2.60;;;;;;;;;;5015451;28;20177;-85
2021/08/20 00:58:02;;;;;;;2.47;2.27;;;;;;;;;;5033158;28;20200;-85
2021/08/20 01:00:28;;;;;;;3.80;2.57;;;;;;;;;;5034285;28;20243;-85
2021/08/20 01:03:01;;;;;;;2.60;2.40;;;;;;;;;;5035897;28;20673;-85
2021/08/20 01:05:27;;;;;;;3.40;2.43;;;;;;;;;;5012761;28;20200;-85
2021/08/20 01:07:53;;;;;;;2.90;2.60;;;;;;;;;;5013514;28;20204;-85
2021/08/20 01:10:19;;;;;;;2.97;2.60;;;;;;;;;;5015196;28;20281;-85
2021/08/20 01:12:46;;;;;;;3.47;2.70;;;;;;;;;;5016342;28;20166;-85
2021/08/20 01:15:12;;;;;;;2.67;2.37;;;;;;;;;;5016351;28;20190;-85
2021/08/20 01:17:42;;;;;;;3.10;2.27;;;;;;;;;;5036214;28;20675;-85
2021/08/20 01:20:15;;;;;;;4.13;2.60;;;;;;;;;;5019191;28;20182;-85
2021/08/20 01:22:44;;;;;;;4.43;2.67;;;;;;;;;;5016254;28;20291;-84
2021/08/20 01:25:12;;;;;;;2.97;2.53;;;;;;;;;;5035014;28;20194;-85
2021/08/20 01:27:44;;;;;;;3.13;2.40;;;;;;;;;;5036610;28;20174;-85
2021/08/20 01:30:13;;;;;;;4.90;3.10;;;;;;;;;;5034735;28;20247;-85
2021/08/20 01:32:40;;;;;;;3.83;2.57;;;;;;;;;;5019829;28;20245;-85
2021/08/20 01:35:06;;;;;;;3.83;2.80;;;;;;;;;;5012845;28;20282;-85
2021/08/20 01:37:32;;;;;;;2.73;2.53;;;;;;;;;;5019165;28;20193;-85
2021/08/20 01:40:01;;;;;;;3.87;2.70;;;;;;;;;;5016795;28;20662;-85
2021/08/20 01:42:30;;;;;;;3.17;2.80;;;;;;;;;;5019312;28;20269;-85
2021/08/20 01:44:56;;;;;;;3.03;2.70;;;;;;;;;;5002948;28;20194;-85
2021/08/20 01:47:26;;;;;;;3.77;3.40;;;;;;;;;;5036843;28;20506;-85
2021/08/20 01:49:56;;;;;;;3.23;2.93;;;;;;;;;;5036941;28;20220;-85
2021/08/20 01:52:24;;;;;;;4.20;2.77;;;;;;;;;;5035693;28;20185;-85
2021/08/20 01:54:55;;;;;;;4.13;2.97;;;;;;;;;;5036609;28;20247;-85
2021/08/20 01:57:23;;;;;;;3.57;3.00;;;;;;;;;;5003533;28;20230;-85
2021/08/20 01:59:49;;;;;;;3.40;3.10;;;;;;;;;;5019167;28;20199;-85
2021/08/20 02:02:15;;;;;;;4.90;3.10;;;;;;;;;;5018247;28;20198;-85
2021/08/20 02:04:44;;;;;;;3.80;3.50;;;;;;;;;;4998692;28;20948;-85
2021/08/20 02:07:13;;;;;;;3.57;3.27;;;;;;;;;;5015908;28;20297;-85
2021/08/20 02:09:39;;;;;;;3.70;3.23;;;;;;;;;;5022090;28;20285;-85
2021/08/20 02:12:05;;;;;;;4.30;3.90;;;;;;;;;;5016186;28;20214;-84
2021/08/20 02:14:31;;;;;;;4.20;3.80;;;;;;;;;;5012803;28;20631;-85
2021/08/20 02:17:06;;;;;;;3.70;3.40;;;;;;;;;;5007425;28;20210;-85
2021/08/20 02:19:42;;;;;;;4.10;3.70;;;;;;;;;;5001091;28;20182;-85
2021/08/20 02:22:08;;;;;;;4.77;3.93;;;;;;;;;;5019433;28;20241;-85
2021/08/20 02:24:46;;;;;;;4.07;3.70;;;;;;;;;;5004487;28;20286;-85
2021/08/20 02:27:12;;;;;;;4.80;3.73;;;;;;;;;;5002740;28;20178;-85
2021/08/20 02:29:38;;;;;;;4.20;3.80;;;;;;;;;;4993430;28;20194;-85
2021/08/20 02:32:04;;;;;;;4.17;3.77;;;;;;;;;;4996610;28;20190;-85
2021/08/20 02:34:30;;;;;;;4.73;3.87;;;;;;;;;;4996341;28;20183;-85
2021/08/20 02:36:56;;;;;;;4.20;3.80;;;;;;;;;;4995783;28;20183;-85
2021/08/20 02:39:22;;;;;;;3.93;3.57;;;;;;;;;;4995808;28;20190;-85
2021/08/20 02:41:48;;;;;;;4.27;3.60;;;;;;;;;;5018147;28;21086;-84
2021/08/20 02:44:15;;;;;;;3.87;3.43;;;;;;;;;;4996028;28;20233;-85
2021/08/20 02:46:41;;;;;;;5.60;3.97;;;;;;;;;;4995827;28;20206;-84
2021/08/20 02:49:07;;;;;;;7.37;4.23;;;;;;;;;;4996338;28;20269;-85
2021/08/20 02:51:35;;;;;;;4.23;3.90;;;;;;;;;;5015347;28;20262;-84
2021/08/20 02:54:01;;;;;;;4.73;3.43;;;;;;;;;;5013723;28;20187;-85
2021/08/20 02:56:27;;;;;;;7.03;4.50;;;;;;;;;;4996383;28;20276;-85
2021/08/20 02:58:53;;;;;;;6.67;3.97;;;;;;;;;;4997685;28;20187;-85
2021/08/20 03:01:19;;;;;;;5.03;4.17;;;;;;;;;;4996241;28;20178;-85
2021/08/20 03:03:45;;;;;;;3.90;3.60;;;;;;;;;;4997072;28;20292;-84
2021/08/20 03:06:11;;;;;;;6.67;4.40;;;;;;;;;;4995325;28;20700;-85
2021/08/20 03:08:37;;;;;;;3.90;3.50;;;;;;;;;;4996853;28;20170;-84
2021/08/20 03:11:04;;;;;;;4.43;4.03;;;;;;;;;;5012234;28;20237;-84
2021/08/20 03:13:30;;;;;;;6.10;4.37;;;;;;;;;;4999689;28;20590;-84
2021/08/20 03:15:56;;;;;;;4.53;4.13;;;;;;;;;;4987788;28;20285;-84
2021/08/20 03:18:22;;;;;;;4.53;4.13;;;;;;;;;;5014296;28;20181;-85
2021/08/20 03:20:48;;;;;;;5.20;4.30;;;;;;;;;;4995204;28;20202;-85
2021/08/20 03:23:15;;;;;;;4.43;4.03;;;;;;;;;;4975045;28;20258;-85
2021/08/20 03:25:41;;;;;;;4.30;3.90;;;;;;;;;;5017423;28;20186;-85
2021/08/20 03:28:08;;;;;;;4.17;3.77;;;;;;;;;;4996378;28;20178;-85
2021/08/20 03:30:34;;;;;;;5.03;4.37;;;;;;;;;;4996043;28;20197;-85
2021/08/20 03:33:01;;;;;;;5.10;4.17;;;;;;;;;;4995904;28;20183;-84
2021/08/20 03:35:27;;;;;;;4.77;4.33;;;;;;;;;;5011411;28;20182;-85
2021/08/20 03:37:53;;;;;;;5.90;4.67;;;;;;;;;;4994205;28;20177;-85
2021/08/20 03:40:19;;;;;;;5.57;4.60;;;;;;;;;;5007979;28;20182;-85
2021/08/20 03:42:45;;;;;;;5.30;4.47;;;;;;;;;;4995986;28;20224;-85
2021/08/20 03:45:11;;;;;;;4.70;4.23;;;;;;;;;;4995456;28;20252;-85
2021/08/20 03:47:37;;;;;;;4.43;4.03;;;;;;;;;;4995882;28;20190;-85
2021/08/20 03:50:04;;;;;;;5.87;4.90;;;;;;;;;;5011684;28;20237;-85
2021/08/20 03:52:30;;;;;;;4.97;4.47;;;;;;;;;;4997036;28;20186;-85
2021/08/20 03:54:58;;;;;;;5.10;4.60;;;;;;;;;;4991427;28;20884;-85
2021/08/20 03:57:24;;;;;;;4.77;4.37;;;;;;;;;;5011480;28;20229;-85
2021/08/20 03:59:50;;;;;;;5.10;4.20;;;;;;;;;;5011826;28;20174;-85
2021/08/20 04:02:16;;;;;;;4.83;4.43;;;;;;;;;;5011469;28;20186;-85
2021/08/20 04:04:42;;;;;;;4.70;4.30;;;;;;;;;;5022946;28;20190;-85
2021/08/20 04:07:08;;;;;;;5.00;4.60;;;;;;;;;;5012652;28;20599;-85
2021/08/20 04:09:34;;;;;;;4.87;3.93;;;;;;;;;;5012826;28;20198;-84
2021/08/20 04:12:00;;;;;;;4.63;4.17;;;;;;;;;;5011637;28;20183;-85
2021/08/20 04:14:26;;;;;;;6.90;4.20;;;;;;;;;;4995672;28;20173;-85
2021/08/20 04:16:52;;;;;;;7.30;4.63;;;;;;;;;;5011336;28;20201;-85
2021/08/20 04:19:18;;;;;;;5.80;5.00;;;;;;;;;;5011864;28;20178;-85
2021/08/20 04:21:44;;;;;;;4.90;4.33;;;;;;;;;;5013042;28;20185;-84
2021/08/20 04:24:14;;;;;;;4.77;4.23;;;;;;;;;;5010042;28;20190;-85
2021/08/20 04:26:40;;;;;;;4.43;4.03;;;;;;;;;;5010594;28;20187;-85
2021/08/20 04:29:06;;;;;;;4.43;4.03;;;;;;;;;;4994307;28;20182;-85
2021/08/20 04:31:32;;;;;;;4.70;4.27;;;;;;;;;;5011130;28;20228;-85
2021/08/20 04:33:58;;;;;;;5.10;4.53;;;;;;;;;;5000455;28;20297;-85
2021/08/20 04:36:24;;;;;;;4.33;3.83;;;;;;;;;;5010435;28;20182;-85
2021/08/20 04:38:50;;;;;;;4.30;3.90;;;;;;;;;;5007226;28;20182;-85
2021/08/20 04:41:16;;;;;;;4.63;4.23;;;;;;;;;;5012255;28;20613;-85
2021/08/20 04:43:42;;;;;;;4.80;4.40;;;;;;;;;;5012254;28;20256;-85
2021/08/20 04:46:08;;;;;;;4.67;4.27;;;;;;;;;;5010278;28;20260;-84
2021/08/20 04:48:34;;;;;;;4.60;4.17;;;;;;;;;;5011049;28;20190;-84
2021/08/20 04:51:01;;;;;;;6.20;4.77;;;;;;;;;;5014775;28;20618;-86
2021/08/20 04:53:30;;;;;;;4.00;3.70;;;;;;;;;;4998567;28;20206;-86
2021/08/20 04:55:57;;;;;;;5.47;4.37;;;;;;;;;;5010883;28;20235;-85
2021/08/20 04:58:24;;;;;;;4.60;3.80;;;;;;;;;;5033437;28;20192;-86
2021/08/20 05:00:50;;;;;;;4.30;3.90;;;;;;;;;;5012164;28;20502;-85
2021/08/20 05:03:16;;;;;;;5.40;4.03;;;;;;;;;;5031464;28;20207;-85
2021/08/20 05:05:42;;;;;;;5.27;3.87;;;;;;;;;;5033280;28;20212;-85
2021/08/20 05:08:09;;;;;;;5.67;4.27;;;;;;;;;;5032344;28;20209;-85
2021/08/20 05:10:35;;;;;;;5.23;3.93;;;;;;;;;;5015451;28;20218;-85
2021/08/20 05:13:05;;;;;;;4.77;4.13;;;;;;;;;;5032532;28;20183;-85
2021/08/20 05:15:31;;;;;;;4.47;4.00;;;;;;;;;;5031418;28;20200;-85
2021/08/20 05:17:57;;;;;;;4.27;3.87;;;;;;;;;;5032176;28;20189;-84
2021/08/20 05:20:24;;;;;;;4.83;3.93;;;;;;;;;;5032209;28;20567;-84
2021/08/20 05:22:53;;;;;;;6.37;3.73;;;;;;;;;;5033605;28;20243;-84
2021/08/20 05:25:23;;;;;;;5.33;3.23;;;;;;;;;;5015281;28;20656;-84
2021/08/20 05:27:51;;;;;;;4.53;3.70;;;;;;;;;;5014682;28;20174;-85
2021/08/20 05:30:18;;;;;;;4.77;4.37;;;;;;;;;;5039248;28;20216;-86
2021/08/20 05:32:44;;;;;;;4.67;4.20;;;;;;;;;;5018507;28;20182;-83
2021/08/20 05:35:11;;;;;;;11.40;8.90;;;;;;;;;;5028644;28;20181;-83
2021/08/20 05:37:37;;;;;;;6.93;5.63;;;;;;;;;;5034563;28;20182;-82
2021/08/20 05:40:04;;;;;;;8.00;6.30;;;;;;;;;;5033915;28;20185;-83
2021/08/20 05:42:30;;;;;;;8.83;7.00;;;;;;;;;;5033015;28;20189;-82
2021/08/20 05:44:56;;;;;;;11.37;6.90;;;;;;;;;;5017312;28;20190;-82
2021/08/20 05:47:23;;;;;;;8.03;7.23;;;;;;;;;;5016726;28;20196;-82
2021/08/20 05:49:49;;;;;;;8.07;6.77;;;;;;;;;;5033562;28;20232;-82
2021/08/20 05:52:15;;;;;;;7.50;6.67;;;;;;;;;;5035482;28;20202;-82
2021/08/20 05:54:41;;;;;;;10.83;7.27;;;;;;;;;;5036850;28;20173;-83
2021/08/20 05:57:07;;;;;;;8.10;6.17;;;;;;;;;;5035494;28;20218;-82
2021/08/20 05:59:34;;;;;;;9.47;6.93;;;;;;;;;;5016497;28;20340;-82
2021/08/20 06:02:01;;;;;;;9.63;7.23;;;;;;;;;;5017643;28;20205;-82
2021/08/20 06:04:27;;;;;;;10.40;7.33;;;;;;;;;;5033884;28;20182;-82
2021/08/20 06:06:53;;;;;;;8.73;7.47;;;;;;;;;;5016106;28;20271;-82
2021/08/20 06:09:19;;;;;;;8.63;6.87;;;;;;;;;;5035875;28;20185;-82
2021/08/20 06:11:45;;;;;;;10.37;7.33;;;;;;;;;;5016704;28;20192;-82
2021/08/20 06:14:11;;;;;;;10.47;8.00;;;;;;;;;;5016853;28;20189;-82
2021/08/20 06:16:37;;;;;;;8.83;7.97;;;;;;;;;;5025118;28;20178;-83
2021/08/20 06:19:04;;;;;;;9.07;7.77;;;;;;;;;;5042974;28;20196;-83
2021/08/20 06:21:31;;;;;;;8.93;7.23;;;;;;;;;;5030366;28;20214;-83
2021/08/20 06:23:59;;;;;;;11.23;8.17;;;;;;;;;;5029118;28;20287;-86
2021/08/20 06:26:27;;;;;;;9.80;7.77;;;;;;;;;;5041183;28;20249;-83
2021/08/20 06:28:57;;;;;;;10.20;8.13;;;;;;;;;;5047656;28;20195;-84
2021/08/20 06:31:23;;;;;;;9.10;7.40;;;;;;;;;;5019880;28;20217;-82
2021/08/20 06:33:53;;;;;;;9.00;8.10;;;;;;;;;;5045334;28;20196;-81
2021/08/20 06:36:19;;;;;;;9.50;7.90;;;;;;;;;;5037416;28;20205;-83
2021/08/20 06:38:45;;;;;;;11.60;9.53;;;;;;;;;;5031073;28;20231;-82
2021/08/20 06:41:14;;;;;;;10.17;8.50;;;;;;;;;;5030519;28;20201;-83
2021/08/20 06:43:47;;;;;;;9.00;7.97;;;;;;;;;;5046302;28;20267;-84
2021/08/20 06:46:13;;;;;;;9.33;8.20;;;;;;;;;;5027110;28;20257;-85
2021/08/20 06:48:55;;;;;;;11.47;8.87;;;;;;;;;;5021225;28;20217;-84
2021/08/20 06:51:21;;;;;;;10.20;8.50;;;;;;;;;;5024536;28;20688;-84
2021/08/20 06:53:50;;;;;;;11.73;8.40;;;;;;;;;;5040730;28;20577;-84
2021/08/20 06:56:25;;;;;;;10.30;8.20;;;;;;;;;;5034880;28;20308;-85
2021/08/20 06:59:01;;;;;;;;;;;;;;;;;;;;;
2021/08/20 07:01:28;;;;;;;11.20;8.07;;;;;;;;;;5028503;28;20260;-85
2021/08/20 07:03:55;;;;;;;8.93;7.83;;;;;;;;;;5033142;28;20225;-85
2021/08/20 07:06:22;;;;;;;14.73;9.00;;;;;;;;;;5012284;28;20209;-83
2021/08/20 07:08:49;;;;;;;10.60;8.63;;;;;;;;;;5011347;28;20547;-83
2021/08/20 07:11:17;;;;;;;10.93;8.50;;;;;;;;;;5031729;28;20797;-83
2021/08/20 07:13:43;;;;;;;12.40;8.00;;;;;;;;;;5015987;28;20184;-84
2021/08/20 07:16:09;;;;;;;11.70;9.40;;;;;;;;;;5015907;28;20209;-83
2021/08/20 07:18:35;;;;;;;12.37;9.00;;;;;;;;;;5015512;28;21224;-84
2021/08/20 07:21:02;;;;;;;9.80;7.90;;;;;;;;;;5022499;28;20189;-83
2021/08/20 07:23:28;;;;;;;13.03;8.83;;;;;;;;;;5035114;28;20235;-85
2021/08/20 07:25:54;;;;;;;12.97;9.90;;;;;;;;;;5017157;28;20212;-84
2021/08/20 07:28:20;;;;;;;11.17;9.13;;;;;;;;;;5014366;28;20195;-83
2021/08/20 07:30:46;;;;;;;14.33;9.77;;;;;;;;;;5002810;28;20202;-83
2021/08/20 07:33:13;;;;;;;14.03;9.80;;;;;;;;;;5016053;28;20190;-85
2021/08/20 07:35:39;;;;;;;11.13;9.53;;;;;;;;;;5013548;28;20180;-85
2021/08/20 07:38:05;;;;;;;15.73;10.20;;;;;;;;;;5012211;28;20202;-82
2021/08/20 07:40:31;;;;;;;13.03;9.83;;;;;;;;;;5013580;28;20541;-81
2021/08/20 07:42:57;;;;;;;12.47;9.50;;;;;;;;;;5016165;28;20185;-81
2021/08/20 07:45:23;;;;;;;19.10;10.50;;;;;;;;;;5040898;28;20182;-81
2021/08/20 07:47:51;;;;;;;10.57;9.47;;;;;;;;;;5020211;28;20243;-82
2021/08/20 07:50:17;;;;;;;13.37;10.17;;;;;;;;;;5015254;28;20205;-81
2021/08/20 07:52:44;;;;;;;13.40;9.73;;;;;;;;;;5013959;28;20184;-81
2021/08/20 07:55:11;;;;;;;13.27;9.77;;;;;;;;;;5030356;28;20196;-79
2021/08/20 07:58:04;;;;;;;15.20;10.00;;;;;;;;;;4993651;28;20226;-79
2021/08/20 08:00:31;;;;;;;14.50;9.50;;;;;;;;;;5002602;28;20225;-80
2021/08/20 08:02:57;;;;;;;13.40;10.00;;;;;;;;;;5003686;28;20199;-82
2021/08/20 08:05:25;;;;;;;13.27;11.03;;;;;;;;;;5014899;28;20193;-80
2021/08/20 08:07:51;;;;;;;11.47;9.87;;;;;;;;;;4982938;28;20214;-84
2021/08/20 08:10:18;;;;;;;13.93;10.27;;;;;;;;;;5012323;28;20238;-84
2021/08/20 08:12:44;;;;;;;13.10;9.97;;;;;;;;;;4998094;28;20193;-82
2021/08/20 08:15:11;;;;;;;12.30;10.13;;;;;;;;;;4996946;28;20178;-84
2021/08/20 08:17:37;;;;;;;12.77;9.80;;;;;;;;;;4998536;28;20178;-84
2021/08/20 08:20:05;;;;;;;14.43;9.40;;;;;;;;;;4982766;28;20201;-85
2021/08/20 08:22:31;;;;;;;13.77;9.93;;;;;;;;;;4996981;28;20202;-84
2021/08/20 08:25:00;;;;;;;12.30;10.53;;;;;;;;;;5013232;28;20524;-84
2021/08/20 08:27:26;;;;;;;15.30;11.33;;;;;;;;;;4997214;28;20183;-85
2021/08/20 08:29:52;;;;;;;13.90;11.80;;;;;;;;;;4994666;28;20209;-84
2021/08/20 08:32:18;;;;;;;13.83;11.03;;;;;;;;;;4995098;28;20286;-80
2021/08/20 08:34:44;;;;;;;10.73;9.60;;;;;;;;;;5008602;28;20190;-85
2021/08/20 08:37:12;;;;;;;13.60;10.10;;;;;;;;;;4999572;28;20190;-86
2021/08/20 08:39:38;;;;;;;11.40;9.57;;;;;;;;;;4991442;28;20273;-87
2021/08/20 08:42:05;;;;;;;14.27;9.67;;;;;;;;;;5008508;28;20178;-87
2021/08/20 08:44:31;;;;;;;12.30;9.60;;;;;;;;;;4998324;28;20661;-88
2021/08/20 08:46:58;;;;;;;12.17;9.63;;;;;;;;;;5016031;28;20179;-89
2021/08/20 08:49:25;;;;;;;12.35;10.88;;;;;;;;;;5012218;28;20419;-89
2021/08/20 08:51:51;;;;;;;12.57;9.03;;;;;;;;;;4995655;28;20202;-88
2021/08/20 08:54:17;;;;;;;12.73;9.20;;;;;;;;;;5005128;28;20252;-85
2021/08/20 08:56:47;;;;;;;11.30;8.93;;;;;;;;;;4997495;28;20214;-89
2021/08/20 08:59:13;;;;;;;13.60;9.63;;;;;;;;;;5004461;28;20179;-85
2021/08/20 09:01:40;;;;;;;10.43;9.13;;;;;;;;;;5011943;28;20265;-87
2021/08/20 09:04:10;;;;;;;9.73;7.90;;;;;;;;;;4994876;28;20171;-87
2021/08/20 09:06:41;;;;;;;11.40;9.03;;;;;;;;;;4990704;28;20221;-88
2021/08/20 09:09:08;;;;;;;10.77;7.97;;;;;;;;;;5005366;28;20700;-88
2021/08/20 09:11:34;;;;;;;8.27;7.47;;;;;;;;;;5002411;28;20264;-88
2021/08/20 09:14:01;;;;;;;8.37;6.87;;;;;;;;;;4994329;28;20203;-88
2021/08/20 09:16:37;;;;;;;8.40;7.03;;;;;;;;;;4994851;28;20201;-88
2021/08/20 09:19:10;;;;;;;8.67;7.00;;;;;;;;;;4994350;28;20191;-88
2021/08/20 09:21:37;;;;;;;8.30;6.03;;;;;;;;;;4997764;28;20455;-88
2021/08/20 09:24:09;;;;;;;7.43;6.27;;;;;;;;;;4989689;28;20193;-88
2021/08/20 09:26:35;;;;;;;9.47;6.93;;;;;;;;;;4989623;28;20269;-88
2021/08/20 09:29:12;;;;;;;7.10;5.87;;;;;;;;;;4994347;28;20278;-88
2021/08/20 09:31:58;;;;;;;9.17;6.33;;;;;;;;;;5005278;28;20329;-87
2021/08/20 09:34:24;;;;;;;7.37;5.50;;;;;;;;;;4998917;28;20195;-87
2021/08/20 09:36:53;;;;;;;9.18;7.22;;;;;;;;;;4999322;28;20449;-86
2021/08/20 09:39:25;;;;;;;8.40;7.57;;;;;;;;;;5001392;28;20191;-87
2021/08/20 09:42:10;;;;;;;7.07;6.30;;;;;;;;;;5001717;28;20187;-87
2021/08/20 09:44:36;;;;;;;9.27;6.20;;;;;;;;;;4998180;28;20613;-86
2021/08/20 09:47:06;;;;;;;8.00;7.20;;;;;;;;;;5023240;28;20259;-86
2021/08/20 09:49:52;;;;;;;8.43;6.40;;;;;;;;;;5000664;28;20554;-87
2021/08/20 09:52:48;;;;;;;8.13;7.07;;;;;;;;;;5022277;28;20182;-87
2021/08/20 09:55:34;;;;;;;6.60;6.00;;;;;;;;;;4988769;28;20194;-87
2021/08/20 09:58:01;;;;;;;7.47;5.73;;;;;;;;;;5022020;28;20252;-88
2021/08/20 10:00:30;;;;;;;7.47;6.20;;;;;;;;;;5038174;28;20209;-88
2021/08/20 10:02:59;;;;;;;6.60;5.40;;;;;;;;;;5038025;28;20260;-88
2021/08/20 10:05:25;;;;;;;6.87;5.17;;;;;;;;;;5035856;28;20611;-86
2021/08/20 10:07:55;;;;;;;4.83;4.43;;;;;;;;;;5018588;28;20267;-87
2021/08/20 10:10:21;;;;;;;4.87;4.20;;;;;;;;;;5032014;28;20264;-86
2021/08/20 10:12:51;;;;;;;4.47;3.87;;;;;;;;;;5017785;28;20243;-86
2021/08/20 10:15:26;;;;;;;5.50;5.00;;;;;;;;;;5016505;28;20273;-86
2021/08/20 10:17:53;;;;;;;5.67;4.80;;;;;;;;;;5013073;28;20184;-87
2021/08/20 10:20:19;;;;;;;6.77;5.20;;;;;;;;;;5016109;28;20210;-86
2021/08/20 10:22:46;;;;;;;9.97;5.57;;;;;;;;;;5034569;28;20544;-86
2021/08/20 10:25:12;;;;;;;7.77;5.40;;;;;;;;;;5001849;28;20194;-83
2021/08/20 10:27:39;;;;;;;5.37;4.77;;;;;;;;;;5015773;28;20198;-83
2021/08/20 10:30:12;;;;;;;3.70;3.40;;;;;;;;;;5012220;28;20252;-86
2021/08/20 10:32:39;;;;;;;4.27;3.00;;;;;;;;;;5017961;28;20174;-86
2021/08/20 10:35:05;;;;;;;3.17;2.57;;;;;;;;;;5037039;28;20186;-87
2021/08/20 10:37:31;;;;;;;2.50;2.20;;;;;;;;;;5034016;28;20273;-86
2021/08/20 10:40:02;;;;;;;5.57;2.50;;;;;;;;;;5017245;28;20189;-86
2021/08/20 10:42:40;;;;;;;2.20;2.00;;;;;;;;;;5015574;28;20178;-87
2021/08/20 10:45:06;;;;;;;3.00;2.17;;;;;;;;;;5016836;28;20956;-86
2021/08/20 10:47:32;;;;;;;2.97;2.27;;;;;;;;;;5017890;28;20263;-85
2021/08/20 10:50:12;;;;;;;2.83;2.30;;;;;;;;;;5018063;28;20198;-86
2021/08/20 10:52:39;;;;;;;3.43;2.37;;;;;;;;;;5035273;28;20533;-86
2021/08/20 10:55:14;;;;;;;2.10;2.00;;;;;;;;;;5018812;28;20324;-87
2021/08/20 10:57:42;;;;;;;3.40;2.23;;;;;;;;;;5016340;28;20265;-86
2021/08/20 11:00:08;;;;;;;3.03;1.77;;;;;;;;;;5029968;28;20217;-87
2021/08/20 11:02:52;;;;;;;2.50;1.70;;;;;;;;;;5033173;28;20200;-87
2021/08/20 11:05:37;;;;;;;2.80;1.77;;;;;;;;;;5016705;28;20194;-86
2021/08/20 11:08:03;;;;;;;1.87;1.77;;;;;;;;;;5025467;28;20206;-86
2021/08/20 11:10:32;;;;;;;2.57;1.80;;;;;;;;;;5026557;28;20198;-86
2021/08/20 11:13:02;;;;;;;3.50;3.20;;;;;;;;;;5030715;28;20311;-87
2021/08/20 11:15:44;;;;;;;6.47;5.57;;;;;;;;;;5016278;28;20182;-87
2021/08/20 11:18:10;;;;;;;5.43;4.80;;;;;;;;;;4989636;28;20198;-86
2021/08/20 11:20:41;;;;;;;4.97;4.47;;;;;;;;;;5007771;28;20213;-87
2021/08/20 11:23:16;;;;;;;4.50;3.60;;;;;;;;;;5004727;28;20187;-86
2021/08/20 11:25:48;;;;;;;3.67;3.37;;;;;;;;;;5030035;28;20185;-86
2021/08/20 11:28:19;;;;;;;3.97;3.60;;;;;;;;;;5033594;28;20178;-85
2021/08/20 11:31:06;;;;;;;3.97;3.53;;;;;;;;;;5014628;28;20216;-86
2021/08/20 11:33:33;;;;;;;3.90;2.97;;;;;;;;;;5014162;28;20721;-86
2021/08/20 11:36:04;;;;;;;4.20;3.60;;;;;;;;;;5026445;28;20244;-86
2021/08/20 11:38:32;;;;;;;3.67;3.00;;;;;;;;;;5014718;28;20173;-87
2021/08/20 11:41:23;;;;;;;5.23;4.00;;;;;;;;;;5033121;28;20193;-87
2021/08/20 11:43:57;;;;;;;5.40;4.87;;;;;;;;;;5005497;28;20194;-87
2021/08/20 11:46:24;;;;;;;5.70;3.90;;;;;;;;;;5033636;28;20193;-87
2021/08/20 11:48:51;;;;;;;5.43;4.47;;;;;;;;;;5019963;28;20173;-87
2021/08/20 11:51:25;;;;;;;4.73;4.23;;;;;;;;;;5017118;28;20230;-87
2021/08/20 11:53:52;;;;;;;5.97;4.90;;;;;;;;;;5021297;28;20211;-87
2021/08/20 11:56:22;;;;;;;5.20;4.03;;;;;;;;;;5021336;28;20217;-89
2021/08/20 11:58:54;;;;;;;4.20;3.70;;;;;;;;;;5036030;28;20193;-86
2021/08/20 12:01:34;;;;;;;5.87;4.33;;;;;;;;;;5042297;28;20806;-86
2021/08/20 12:04:04;;;;;;;3.60;3.30;;;;;;;;;;5025602;28;20174;-86
2021/08/20 12:06:38;;;;;;;6.07;3.77;;;;;;;;;;5048586;28;20194;-87
2021/08/20 12:09:11;;;;;;;4.03;3.23;;;;;;;;;;5045897;28;20178;-87
2021/08/20 12:11:37;;;;;;;4.60;3.47;;;;;;;;;;5043234;28;20232;-87
2021/08/20 12:14:05;;;;;;;3.73;3.33;;;;;;;;;;5021459;28;20173;-87
2021/08/20 12:16:50;;;;;;;2.90;2.70;;;;;;;;;;5023506;28;20178;-88
2021/08/20 12:19:33;;;;;;;3.00;2.80;;;;;;;;;;5015522;28;20205;-87
2021/08/20 12:22:16;;;;;;;2.83;2.63;;;;;;;;;;5013770;28;20229;-86
2021/08/20 12:24:51;;;;;;;3.00;2.73;;;;;;;;;;5014555;28;20198;-87
2021/08/20 12:27:29;;;;;;;3.60;2.70;;;;;;;;;;5014815;28;20187;-86
2021/08/20 12:29:58;;;;;;;2.70;2.50;;;;;;;;;;5031630;28;20599;-87
2021/08/20 12:32:26;;;;;;;2.33;2.13;;;;;;;;;;5016383;28;20194;-80
2021/08/20 12:35:30;;;;;;;2.57;2.20;;;;;;;;;;5032562;28;20195;-87
2021/08/20 12:38:15;;;;;;;2.70;2.50;;;;;;;;;;4944754;29;20187;-83
2021/08/20 12:40:44;;;;;;;3.30;3.00;;;;;;;;;;4947632;29;20208;-86
2021/08/20 12:43:28;;;;;;;2.87;2.67;;;;;;;;;;4946995;29;20189;-86
2021/08/20 12:46:13;;;;;;;3.10;2.90;;;;;;;;;;4979228;28;20222;-87
2021/08/20 12:48:55;;;;;;;2.40;2.23;;;;;;;;;;5013980;28;20199;-87
2021/08/20 12:51:26;;;;;;;3.07;2.87;;;;;;;;;;5030105;28;20202;-87
2021/08/20 12:54:21;;;;;;;3.00;2.80;;;;;;;;;;5031117;28;20195;-87
2021/08/20 12:56:57;;;;;;;2.60;2.40;;;;;;;;;;5007632;28;20387;-87
2021/08/20 12:59:31;;;;;;;2.67;2.47;;;;;;;;;;4998488;28;20199;-87
2021/08/20 13:02:05;;;;;;;2.40;2.20;;;;;;;;;;4998686;28;20189;-87
2021/08/20 13:04:32;;;;;;;2.43;2.20;;;;;;;;;;4996669;28;20352;-87
2021/08/20 13:07:05;;;;;;;3.03;2.40;;;;;;;;;;4994580;28;20216;-87
2021/08/20 13:09:37;;;;;;;2.83;2.63;;;;;;;;;;5008446;28;20187;-88
2021/08/20 13:12:03;;;;;;;3.97;3.43;;;;;;;;;;4997162;28;20215;-88
2021/08/20 13:14:32;;;;;;;4.60;2.90;;;;;;;;;;4995238;28;20193;-88
2021/08/20 13:16:58;;;;;;;3.70;2.87;;;;;;;;;;5010601;28;20194;-88
2021/08/20 13:19:24;;;;;;;2.30;2.10;;;;;;;;;;5010901;28;20273;-85
2021/08/20 13:21:50;;;;;;;3.63;2.13;;;;;;;;;;4993876;28;20181;-85
2021/08/20 13:24:16;;;;;;;2.87;2.30;;;;;;;;;;4998198;28;20728;-82
2021/08/20 13:26:43;;;;;;;2.70;2.50;;;;;;;;;;4993513;28;20180;-81
2021/08/20 13:29:11;;;;;;;2.40;2.20;;;;;;;;;;5006374;28;20671;-80
2021/08/20 13:31:37;;;;;;;2.47;2.00;;;;;;;;;;4991015;28;20237;-81
2021/08/20 13:34:04;;;;;;;2.97;2.50;;;;;;;;;;5006841;28;20194;-80
2021/08/20 13:36:30;;;;;;;2.00;1.80;;;;;;;;;;5009425;28;20191;-80
2021/08/20 13:38:56;;;;;;;2.20;2.00;;;;;;;;;;4995996;28;20836;-80
2021/08/20 13:41:23;;;;;;;3.50;2.40;;;;;;;;;;5011687;28;20182;-81
2021/08/20 13:43:49;;;;;;;2.03;1.90;;;;;;;;;;5009992;28;20583;-81
2021/08/20 13:46:15;;;;;;;3.57;2.20;;;;;;;;;;4996856;28;20283;-80
2021/08/20 13:48:41;;;;;;;1.80;1.70;;;;;;;;;;5012760;28;20187;-80
2021/08/20 13:51:07;;;;;;;2.20;2.00;;;;;;;;;;4995085;28;20218;-87
2021/08/20 13:53:33;;;;;;;2.13;2.03;;;;;;;;;;4992736;28;20200;-87
2021/08/20 13:55:59;;;;;;;2.30;2.10;;;;;;;;;;4995243;28;20190;-87
2021/08/20 13:58:25;;;;;;;1.97;1.77;;;;;;;;;;4996277;28;20233;-87
2021/08/20 14:00:51;;;;;;;2.57;2.37;;;;;;;;;;4995503;28;20740;-87
2021/08/20 14:03:17;;;;;;;3.57;2.20;;;;;;;;;;5014026;28;20207;-87
2021/08/20 14:05:43;;;;;;;2.30;2.10;;;;;;;;;;5013790;28;20643;-87
2021/08/20 14:08:10;;;;;;;3.87;2.57;;;;;;;;;;5013262;28;20683;-87
2021/08/20 14:10:36;;;;;;;3.37;2.50;;;;;;;;;;5012204;28;20573;-87
2021/08/20 14:13:02;;;;;;;2.73;2.50;;;;;;;;;;5012454;28;20241;-87
2021/08/20 14:15:29;;;;;;;2.40;2.20;;;;;;;;;;5022878;28;20259;-86
2021/08/20 14:17:55;;;;;;;2.63;2.43;;;;;;;;;;4991622;28;20180;-87
2021/08/20 14:20:21;;;;;;;2.40;2.00;;;;;;;;;;5003870;28;20325;-87
2021/08/20 14:22:47;;;;;;;2.63;2.40;;;;;;;;;;5012257;28;20518;-87
2021/08/20 14:25:13;;;;;;;3.33;2.30;;;;;;;;;;4999698;28;20704;-85
2021/08/20 14:27:40;;;;;;;3.00;2.40;;;;;;;;;;4997825;28;20184;-85
2021/08/20 14:30:06;;;;;;;2.57;2.37;;;;;;;;;;4996388;28;20207;-85
2021/08/20 14:32:32;;;;;;;3.63;2.83;;;;;;;;;;4998260;28;20234;-85
2021/08/20 14:34:59;;;;;;;3.63;2.70;;;;;;;;;;5015789;28;20190;-86
2021/08/20 14:37:25;;;;;;;3.40;2.70;;;;;;;;;;5013477;28;20183;-86
2021/08/20 14:39:51;;;;;;;5.47;2.97;;;;;;;;;;5014057;28;20181;-85
2021/08/20 14:42:17;;;;;;;3.90;2.77;;;;;;;;;;4998736;28;20205;-85
2021/08/20 14:44:43;;;;;;;4.00;2.97;;;;;;;;;;4994487;28;20192;-85
2021/08/20 14:47:09;;;;;;;3.90;2.83;;;;;;;;;;5014301;28;20187;-85
2021/08/20 14:49:35;;;;;;;3.00;2.70;;;;;;;;;;5012639;28;20179;-86